Time;durP1;ratioP1;P1;durP2;ratioP2;P2;SDS_P1;SDS_P2;PMS_P1;PMS_P2;Temp;Humidity;BMP_temperature;BMP_pressure;BME280_temperature;BME280_humidity;BME280_pressure;Samples;Min_cycle;Max_cycle;Signal;HPM_P1;HPM_P2
2022/12/13 00:01:18;;;;;;;3.67;3.38;;;;;;;-5.78;100.00;101209.31;4930904;29;20034;-63
2022/12/13 00:03:43;;;;;;;3.38;3.13;;;;;;;-5.79;100.00;101206.75;4919693;29;20028;-63
2022/12/13 00:06:10;;;;;;;3.28;3.08;;;;;;;-5.83;100.00;101203.47;4912679;29;20133;-63
2022/12/13 00:08:36;;;;;;;3.50;3.20;;;;;;;-5.87;100.00;101199.31;4927206;29;20035;-63
2022/12/13 00:11:05;;;;;;;3.50;3.20;;;;;;;-5.89;100.00;101197.72;4930926;29;20028;-63
2022/12/13 00:13:31;;;;;;;3.60;3.30;;;;;;;-5.91;100.00;101202.38;4931074;29;20387;-63
2022/12/13 00:16:02;;;;;;;3.70;3.40;;;;;;;-5.93;100.00;101197.16;4929274;29;20028;-63
2022/12/13 00:18:28;;;;;;;3.47;3.20;;;;;;;-5.92;100.00;101198.00;4929168;29;20036;-63
2022/12/13 00:20:54;;;;;;;3.50;3.20;;;;;;;-5.95;100.00;101191.03;4925781;29;20028;-63
2022/12/13 00:23:19;;;;;;;3.22;3.03;;;;;;;-5.94;100.00;101200.75;4911991;29;20111;-63
2022/12/13 00:25:45;;;;;;;3.50;3.20;;;;;;;-5.93;100.00;101198.94;4919360;29;20052;-63
2022/12/13 00:28:11;;;;;;;3.30;3.10;;;;;;;-5.95;100.00;101196.38;4926358;29;20475;-63
2022/12/13 00:30:36;;;;;;;3.15;2.95;;;;;;;-5.98;100.00;101193.97;4931060;29;20043;-63
2022/12/13 00:33:02;;;;;;;3.47;3.17;;;;;;;-6.00;100.00;101195.88;4933428;29;20059;-63
2022/12/13 00:35:27;;;;;;;3.13;2.92;;;;;;;-6.02;100.00;101196.00;4932975;29;20028;-63
2022/12/13 00:37:52;;;;;;;3.15;2.95;;;;;;;-6.01;100.00;101183.50;4933059;29;20027;-63
2022/12/13 00:40:18;;;;;;;3.20;3.00;;;;;;;-6.04;100.00;101191.72;4931176;29;20032;-63
2022/12/13 00:42:43;;;;;;;3.10;2.90;;;;;;;-6.09;100.00;101186.72;4916061;29;20104;-63
2022/12/13 00:45:08;;;;;;;3.17;2.97;;;;;;;-6.11;100.00;101188.66;4924707;29;20041;-63
2022/12/13 00:47:35;;;;;;;3.20;3.00;;;;;;;-6.12;100.00;101188.78;4925359;29;20027;-63
2022/12/13 00:50:00;;;;;;;3.60;3.30;;;;;;;-6.15;100.00;101192.53;4928300;29;20027;-63
2022/12/13 00:52:26;;;;;;;3.40;3.10;;;;;;;-6.17;100.00;101189.13;4916400;29;20371;-63
2022/12/13 00:54:51;;;;;;;3.15;2.95;;;;;;;-6.16;100.00;101188.16;4923306;29;20025;-63
2022/12/13 00:57:16;;;;;;;3.30;3.10;;;;;;;-6.14;100.00;101190.72;4930052;29;20122;-63
2022/12/13 00:59:41;;;;;;;3.10;2.90;;;;;;;-6.16;100.00;101187.31;4933989;29;20027;-63
2022/12/13 01:02:07;;;;;;;3.20;3.00;;;;;;;-6.18;100.00;101186.56;4933853;29;20034;-63
2022/12/13 01:04:32;;;;;;;3.50;3.20;;;;;;;-6.22;100.00;101193.13;4917412;29;20044;-63
2022/12/13 01:06:57;;;;;;;3.20;3.00;;;;;;;-6.27;100.00;101191.63;4918785;29;20479;-63
2022/12/13 01:09:26;;;;;;;3.42;3.13;;;;;;;-6.29;100.00;101188.22;4933915;29;20086;-63
2022/12/13 01:11:55;;;;;;;3.38;3.17;;;;;;;-6.29;100.00;101190.88;4922323;29;20111;-63
2022/12/13 01:14:21;;;;;;;3.30;3.10;;;;;;;-6.32;100.00;101182.25;4926909;29;20063;-63
2022/12/13 01:16:46;;;;;;;3.28;3.08;;;;;;;-6.34;100.00;101179.69;4925392;29;20051;-63
2022/12/13 01:19:11;;;;;;;3.00;2.80;;;;;;;-6.35;100.00;101185.16;4934087;29;20402;-63
2022/12/13 01:21:37;;;;;;;3.45;3.20;;;;;;;-6.37;100.00;101184.41;4929219;29;20031;-63
2022/12/13 01:24:03;;;;;;;3.35;3.15;;;;;;;-6.41;100.00;101181.13;4927191;29;20390;-63
2022/12/13 01:26:29;;;;;;;3.63;3.33;;;;;;;-6.41;100.00;101182.94;4933059;29;20367;-63
2022/12/13 01:28:54;;;;;;;3.50;3.20;;;;;;;-6.42;100.00;101186.59;4934258;29;20032;-63
2022/12/13 01:31:19;;;;;;;3.67;3.38;;;;;;;-6.41;100.00;101188.28;4932585;29;20035;-63
2022/12/13 01:33:46;;;;;;;3.40;3.20;;;;;;;-6.40;100.00;101180.13;4927316;29;20111;-63
2022/12/13 01:36:16;;;;;;;3.30;3.10;;;;;;;-6.40;100.00;101180.13;4934093;29;20079;-62
2022/12/13 01:38:42;;;;;;;3.35;3.08;;;;;;;-6.42;100.00;101175.91;4933423;29;20059;-63
2022/12/13 01:41:18;;;;;;;3.40;3.17;;;;;;;-6.43;100.00;101180.38;4933525;29;20063;-63
2022/12/13 01:43:47;;;;;;;3.55;3.25;;;;;;;-6.45;100.00;101184.97;4930543;29;20038;-63
2022/12/13 01:46:12;;;;;;;;;;;;;;;-6.42;100.00;101187.44;4932283;29;20040;-64
2022/12/13 01:48:43;;;;;;;3.45;3.20;;;;;;;-6.53;100.00;101188.22;4932504;29;19925;-63
2022/12/13 01:51:11;;;;;;;3.20;3.00;;;;;;;-6.55;100.00;101182.13;4930576;29;20056;-63
2022/12/13 01:53:41;;;;;;;3.58;3.28;;;;;;;-6.55;100.00;101189.28;4927778;29;20052;-63
2022/12/13 01:56:15;;;;;;;3.58;3.38;;;;;;;-6.56;100.00;101184.91;4914467;29;20066;-63
2022/12/13 01:58:40;;;;;;;3.40;3.10;;;;;;;-6.57;100.00;101188.56;4914594;29;20028;-64
2022/12/13 02:01:06;;;;;;;3.50;3.28;;;;;;;-6.61;100.00;101185.25;4922590;29;20031;-63
2022/12/13 02:03:33;;;;;;;3.60;3.30;;;;;;;-6.66;100.00;101184.72;4932433;29;20032;-63
2022/12/13 02:06:03;;;;;;;3.85;3.55;;;;;;;-6.67;100.00;101182.19;4933055;29;20459;-63
2022/12/13 02:08:28;;;;;;;3.45;3.22;;;;;;;-6.64;100.00;101185.50;4934141;29;20094;-63
2022/12/13 02:10:55;;;;;;;3.42;3.13;;;;;;;-6.63;100.00;101186.34;4932090;29;20122;-63
2022/12/13 02:13:20;;;;;;;3.67;3.38;;;;;;;-6.65;100.00;101181.09;4933170;29;20032;-63
2022/12/13 02:16:00;;;;;;;3.30;3.10;;;;;;;-6.68;100.00;101192.00;4930456;29;20541;-63
2022/12/13 02:18:35;;;;;;;3.50;3.30;;;;;;;-6.71;100.00;101178.03;4913925;29;20067;-63
2022/12/13 02:21:04;;;;;;;3.80;3.50;;;;;;;-6.75;100.00;101180.06;4922895;29;20047;-63
2022/12/13 02:24:14;;;;;;;3.70;3.40;;;;;;;-6.73;100.00;101179.97;4928686;29;20054;-63
2022/12/13 02:26:58;;;;;;;3.70;3.40;;;;;;;-6.77;100.00;101179.31;4932653;29;20095;-63
2022/12/13 02:29:38;;;;;;;3.70;3.40;;;;;;;-6.78;100.00;101185.63;4932498;29;20038;-63
2022/12/13 02:32:31;;;;;;;3.28;3.08;;;;;;;-6.78;100.00;101179.44;4931725;29;20067;-63
2022/12/13 02:35:05;;;;;;;3.67;3.38;;;;;;;-6.77;100.00;101178.47;4933535;29;20817;-63
2022/12/13 02:37:54;;;;;;;3.88;3.58;;;;;;;-6.75;100.00;101184.53;4932728;29;20040;-63
2022/12/13 02:40:28;;;;;;;3.65;3.40;;;;;;;-6.76;100.00;101185.50;4928640;29;20044;-63
2022/12/13 02:43:03;;;;;;;3.70;3.40;;;;;;;-6.75;100.00;101177.38;4931041;29;20040;-63
2022/12/13 02:45:36;;;;;;;3.92;3.53;;;;;;;-6.73;100.00;101178.13;4925017;29;20083;-63
2022/12/13 02:48:04;;;;;;;3.80;3.50;;;;;;;-6.70;100.00;101177.91;4931380;29;20042;-63
2022/12/13 02:50:30;;;;;;;;;;;;;;;-6.62;100.00;101169.34;4918305;29;20024;-63
2022/12/13 02:52:57;;;;;;;3.58;3.28;;;;;;;-6.69;100.00;101166.28;4929962;29;19915;-63
2022/12/13 02:55:23;;;;;;;3.55;3.25;;;;;;;-6.73;100.00;101166.59;4928130;29;20152;-63
2022/12/13 02:57:49;;;;;;;3.70;3.40;;;;;;;-6.75;100.00;101161.34;4932595;29;20035;-63
2022/12/13 03:00:18;;;;;;;3.60;3.30;;;;;;;-6.77;100.00;101159.78;4931838;29;20032;-63
2022/12/13 03:02:52;;;;;;;3.70;3.40;;;;;;;-6.78;100.00;101160.75;4929921;29;20087;-63
2022/12/13 03:08:24;;;;;;;3.63;3.33;;;;;;;-6.80;100.00;101150.16;4931652;29;20046;-63
2022/12/13 03:10:50;;;;;;;4.10;3.70;;;;;;;-6.81;100.00;101143.13;4929238;29;20098;-63
2022/12/13 03:13:35;;;;;;;3.63;3.40;;;;;;;-6.78;100.00;101150.06;4927250;29;20035;-63
2022/12/13 03:16:16;;;;;;;3.67;3.38;;;;;;;-6.78;100.00;101153.59;4930122;29;20385;-64
2022/12/13 03:18:43;;;;;;;4.00;3.70;;;;;;;-6.76;100.00;101151.66;4932408;29;20094;-63
2022/12/13 03:21:10;;;;;;;3.70;3.40;;;;;;;-6.73;100.00;101150.59;4930797;29;20083;-63
2022/12/13 03:23:37;;;;;;;4.13;3.83;;;;;;;-6.69;100.00;101157.38;4929733;29;20055;-63
2022/12/13 03:26:24;;;;;;;4.00;3.70;;;;;;;-6.67;100.00;101152.78;4930416;29;20031;-63
2022/12/13 03:28:49;;;;;;;4.20;3.80;;;;;;;-6.67;100.00;101155.47;4932185;29;20070;-63
2022/12/13 03:31:15;;;;;;;4.00;3.70;;;;;;;-6.65;100.00;101162.38;4929670;29;20067;-63
2022/12/13 03:33:40;;;;;;;4.10;3.80;;;;;;;-6.61;100.00;101155.00;4930681;29;20443;-63
2022/12/13 03:36:07;;;;;;;4.30;3.90;;;;;;;-6.57;100.00;101161.84;4932019;29;20023;-63
2022/12/13 03:38:32;;;;;;;4.07;3.78;;;;;;;-6.56;100.00;101158.19;4932116;29;20035;-63
2022/12/13 03:41:01;;;;;;;3.97;3.67;;;;;;;-6.53;100.00;101164.19;4930674;29;20471;-63
2022/12/13 03:43:27;;;;;;;4.13;3.83;;;;;;;-6.51;100.00;101164.06;4931573;29;20031;-63
2022/12/13 03:45:53;;;;;;;4.28;3.97;;;;;;;-6.47;100.00;101160.19;4930293;29;20479;-64
2022/12/13 03:48:19;;;;;;;4.20;3.90;;;;;;;-6.48;100.00;101154.97;4930497;29;20035;-63
2022/12/13 03:50:46;;;;;;;4.15;3.80;;;;;;;-6.47;100.00;101154.00;4913710;29;20062;-62
2022/12/13 03:53:11;;;;;;;4.35;3.95;;;;;;;-6.48;100.00;101150.47;4921226;29;20395;-63
2022/12/13 03:55:36;;;;;;;4.05;3.75;;;;;;;-6.48;100.00;101155.81;4930878;29;20027;-63
2022/12/13 03:58:01;;;;;;;4.28;3.97;;;;;;;-6.49;100.00;101146.09;4931417;29;20464;-63
2022/12/13 04:00:27;;;;;;;4.22;3.92;;;;;;;-6.50;100.00;101147.06;4931047;29;20519;-63
2022/12/13 04:02:52;;;;;;;4.38;4.00;;;;;;;-6.48;100.00;101146.97;4929146;29;20046;-63
2022/12/13 04:05:18;;;;;;;4.10;3.80;;;;;;;-6.48;100.00;101145.13;4931425;29;20032;-62
2022/12/13 04:07:43;;;;;;;3.85;3.55;;;;;;;-6.48;100.00;101137.13;4930793;29;20024;-63
2022/12/13 04:10:09;;;;;;;4.57;4.13;;;;;;;-6.48;100.00;101146.97;4931019;29;20475;-62
2022/12/13 04:15:18;;;;;;;4.30;4.00;;;;;;;-6.44;100.00;101141.25;4930107;29;20071;-63
2022/12/13 04:17:43;;;;;;;4.30;3.88;;;;;;;-6.41;100.00;101143.69;4929985;29;20031;-63
2022/12/13 04:20:09;;;;;;;4.18;3.88;;;;;;;-6.39;100.00;101139.09;4930644;29;20070;-63
2022/12/13 04:22:34;;;;;;;4.40;4.10;;;;;;;-6.36;100.00;101133.53;4931313;29;20071;-63
2022/12/13 04:24:59;;;;;;;4.50;4.10;;;;;;;-6.34;100.00;101133.41;4930822;29;20027;-63
2022/12/13 04:27:25;;;;;;;4.05;3.75;;;;;;;-6.37;100.00;101131.81;4930397;29;20035;-63
2022/12/13 04:29:50;;;;;;;4.53;4.15;;;;;;;-6.41;100.00;101130.34;4930140;29;20803;-63
2022/12/13 04:32:15;;;;;;;4.20;3.90;;;;;;;-6.41;100.00;101130.34;4929395;29;20043;-63
2022/12/13 04:34:41;;;;;;;4.30;4.00;;;;;;;-6.38;100.00;101129.28;4931070;29;20027;-63
2022/12/13 04:37:06;;;;;;;4.07;3.78;;;;;;;-6.40;100.00;101129.38;4931506;29;20024;-63
2022/12/13 04:39:31;;;;;;;4.00;3.70;;;;;;;-6.40;100.00;101129.38;4931532;29;20492;-63
2022/12/13 04:41:56;;;;;;;4.22;3.83;;;;;;;-6.40;100.00;101131.19;4926299;29;20035;-63
2022/12/13 04:44:22;;;;;;;4.10;3.80;;;;;;;-6.43;100.00;101126.94;4924841;29;20043;-63
2022/12/13 04:46:47;;;;;;;4.25;3.95;;;;;;;-6.44;100.00;101129.72;4928862;29;20028;-63
2022/12/13 04:49:12;;;;;;;4.00;3.70;;;;;;;-6.44;100.00;101124.38;4930612;29;20055;-63
2022/12/13 04:51:38;;;;;;;4.47;4.18;;;;;;;-6.46;100.00;101123.63;4929963;29;20043;-63
2022/12/13 04:54:03;;;;;;;4.00;3.70;;;;;;;-6.46;100.00;101127.16;4930565;29;20118;-63
2022/12/13 04:56:28;;;;;;;4.20;3.80;;;;;;;-6.44;100.00;101125.22;4929316;29;20034;-63
2022/12/13 04:58:54;;;;;;;4.30;4.00;;;;;;;-6.42;100.00;101128.66;4930303;29;20351;-63
2022/12/13 05:01:19;;;;;;;4.55;4.15;;;;;;;-6.42;100.00;101128.66;4930168;29;20035;-63
2022/12/13 05:03:44;;;;;;;4.65;4.25;;;;;;;-6.41;100.00;101127.66;4928527;29;20031;-63
2022/12/13 05:06:12;;;;;;;4.53;4.13;;;;;;;-6.39;100.00;101133.75;4928674;29;20423;-63
2022/12/13 05:08:38;;;;;;;4.30;3.90;;;;;;;-6.40;100.00;101129.38;4920041;29;20142;-63
2022/12/13 05:11:05;;;;;;;4.22;3.92;;;;;;;-6.44;100.00;101127.88;4922996;29;20175;-63
2022/12/13 05:13:30;;;;;;;4.30;4.00;;;;;;;-6.45;100.00;101128.88;4930425;29;20039;-63
2022/12/13 05:15:56;;;;;;;4.90;4.50;;;;;;;-6.43;100.00;101126.94;4928886;29;20035;-62
2022/12/13 05:18:22;;;;;;;4.60;4.28;;;;;;;-6.40;100.00;101123.19;4927506;29;20035;-62
2022/12/13 05:20:49;;;;;;;4.60;4.20;;;;;;;-6.40;100.00;101117.84;4933713;29;20024;-63
2022/12/13 05:23:15;;;;;;;4.53;4.13;;;;;;;-6.42;100.00;101120.63;4934507;29;20483;-63
2022/12/13 05:25:40;;;;;;;4.38;4.07;;;;;;;-6.45;100.00;101115.50;4932894;29;20106;-63
2022/12/13 05:28:05;;;;;;;4.65;4.25;;;;;;;-6.48;100.00;101107.72;4934187;29;20031;-63
2022/12/13 05:30:30;;;;;;;4.55;4.15;;;;;;;-6.48;100.00;101106.88;4934472;29;20087;-63
2022/12/13 05:32:56;;;;;;;4.20;3.90;;;;;;;-6.50;100.00;101098.13;4931652;29;20070;-63
2022/12/13 05:35:21;;;;;;;4.10;3.80;;;;;;;-6.52;100.00;101100.91;4930179;29;20028;-63
2022/12/13 05:37:46;;;;;;;4.80;4.40;;;;;;;-6.54;100.00;101100.16;4932647;29;20083;-63
2022/12/13 05:40:12;;;;;;;4.55;4.15;;;;;;;-6.54;100.00;101105.50;4921398;29;20451;-63
2022/12/13 05:42:38;;;;;;;4.28;3.97;;;;;;;-6.55;100.00;101098.44;4930088;29;20040;-63
2022/12/13 05:45:06;;;;;;;4.43;4.03;;;;;;;-6.59;100.00;101091.63;4933641;29;20024;-63
2022/12/13 05:47:31;;;;;;;4.57;4.18;;;;;;;-6.61;100.00;101093.56;4930752;29;20087;-63
2022/12/13 05:49:56;;;;;;;4.60;4.20;;;;;;;-6.63;100.00;101091.03;4931529;29;20890;-63
2022/12/13 05:52:21;;;;;;;4.30;4.00;;;;;;;-6.63;100.00;101090.19;4934237;29;20046;-63
2022/12/13 05:54:47;;;;;;;4.65;4.25;;;;;;;-6.66;100.00;101090.41;4933530;29;20371;-63
2022/12/13 05:57:14;;;;;;;5.00;4.60;;;;;;;-6.67;100.00;101097.56;4932789;29;20423;-63
2022/12/13 05:59:39;;;;;;;4.68;4.28;;;;;;;-6.65;100.00;101081.41;4932872;29;20102;-63
2022/12/13 06:02:04;;;;;;;4.55;4.15;;;;;;;-6.65;100.00;101089.41;4932341;29;20110;-63
2022/12/13 06:04:30;;;;;;;4.20;3.88;;;;;;;-6.65;100.00;101090.28;4933076;29;20052;-63
2022/12/13 06:06:55;;;;;;;4.60;4.20;;;;;;;-6.67;100.00;101086.88;4928921;29;20036;-63
2022/12/13 06:09:21;;;;;;;4.38;4.07;;;;;;;-6.69;100.00;101087.94;4932369;29;20115;-62
2022/12/13 06:11:47;;;;;;;4.72;4.32;;;;;;;-6.71;100.00;101092.56;4929792;29;20420;-63
2022/12/13 06:14:12;;;;;;;4.68;4.28;;;;;;;-6.73;100.00;101092.69;4932047;29;20027;-63
2022/12/13 06:16:38;;;;;;;4.95;4.50;;;;;;;-6.74;100.00;101090.97;4927881;29;20095;-64
2022/12/13 06:19:03;;;;;;;4.82;4.30;;;;;;;-6.71;100.00;101092.56;4931684;29;20024;-64
2022/12/13 06:21:29;;;;;;;4.95;4.55;;;;;;;-6.70;100.00;101099.59;4932314;29;20392;-63
2022/12/13 06:23:55;;;;;;;4.72;4.32;;;;;;;-6.72;100.00;101099.72;4931596;29;20058;-63
2022/12/13 06:26:20;;;;;;;4.78;4.38;;;;;;;-6.70;100.00;101105.78;4930613;29;20039;-62
2022/12/13 06:28:45;;;;;;;4.93;4.50;;;;;;;-6.68;100.00;101097.69;4931885;29;20075;-61
2022/12/13 06:31:10;;;;;;;4.80;4.40;;;;;;;-6.65;100.00;101100.09;4929424;29;20032;-63
2022/12/13 06:33:37;;;;;;;4.70;4.30;;;;;;;-6.65;100.00;101092.09;4931516;29;20035;-62
2022/12/13 06:36:03;;;;;;;4.63;4.30;;;;;;;-6.67;100.00;101094.03;4932206;29;20064;-62
2022/12/13 06:38:30;;;;;;;4.43;4.07;;;;;;;-6.70;100.00;101102.25;4926045;29;20494;-63
2022/12/13 06:41:12;;;;;;;4.28;3.97;;;;;;;-6.70;100.00;101105.78;4912868;29;20460;-62
2022/12/13 06:43:40;;;;;;;4.40;4.10;;;;;;;-6.69;100.00;101102.16;4928369;29;20399;-63
2022/12/13 06:46:06;;;;;;;4.70;4.20;;;;;;;-6.68;100.00;101111.03;4931636;29;20378;-62
2022/12/13 06:48:32;;;;;;;4.40;4.10;;;;;;;-6.69;100.00;101106.63;4931963;29;20059;-62
2022/12/13 06:51:02;;;;;;;4.80;4.40;;;;;;;-6.71;100.00;101097.91;4932081;29;20035;-62
2022/12/13 06:53:27;;;;;;;4.50;4.10;;;;;;;-6.71;100.00;101095.22;4929858;29;20348;-62
2022/12/13 06:55:53;;;;;;;4.68;4.28;;;;;;;-6.74;100.00;101093.66;4931439;29;20363;-61
2022/12/13 06:58:18;;;;;;;5.05;4.10;;;;;;;-6.77;100.00;101096.53;4930672;29;20030;-62
2022/12/13 07:00:43;;;;;;;6.90;4.47;;;;;;;-6.80;100.00;101094.94;4930309;29;20813;-62
2022/12/13 07:03:11;;;;;;;5.95;4.38;;;;;;;-6.82;100.00;101099.53;4929355;29;20031;-62
2022/12/13 07:05:37;;;;;;;5.00;4.50;;;;;;;-6.83;100.00;101102.34;4929906;29;20422;-62
2022/12/13 07:08:02;;;;;;;4.55;4.25;;;;;;;-6.84;100.00;101105.97;4930934;29;20499;-62
2022/12/13 07:10:28;;;;;;;5.25;4.75;;;;;;;-6.85;100.00;101099.75;4930576;29;20090;-61
2022/12/13 07:12:53;;;;;;;4.63;4.22;;;;;;;-6.85;100.00;101107.75;4927774;29;20032;-62
2022/12/13 07:15:18;;;;;;;4.13;3.83;;;;;;;-6.86;100.00;101108.72;4931216;29;20027;-62
2022/12/13 07:17:49;;;;;;;4.88;4.47;;;;;;;-6.88;100.00;101108.00;4929403;29;20193;-62
2022/12/13 07:20:14;;;;;;;4.78;4.28;;;;;;;-6.89;100.00;101103.63;4930767;29;20050;-61
2022/12/13 07:22:40;;;;;;;4.38;4.00;;;;;;;-6.89;100.00;101100.13;4929331;29;20051;-61
2022/12/13 07:25:05;;;;;;;4.85;4.45;;;;;;;-6.88;100.00;101109.81;4929608;29;20114;-61
2022/12/13 07:27:31;;;;;;;4.90;4.50;;;;;;;-6.90;100.00;101107.25;4930846;29;20035;-62
2022/12/13 07:29:56;;;;;;;4.55;4.25;;;;;;;-6.89;100.00;101105.47;4929987;29;20027;-62
2022/12/13 07:32:22;;;;;;;4.60;4.20;;;;;;;-6.85;100.00;101112.25;4928268;29;20105;-62
2022/12/13 07:34:47;;;;;;;4.78;4.38;;;;;;;-6.84;100.00;101111.31;4930104;29;20574;-63
2022/12/13 07:37:12;;;;;;;4.88;4.47;;;;;;;-6.82;100.00;101104.88;4927997;29;20039;-62
2022/12/13 07:39:38;;;;;;;4.70;4.30;;;;;;;-6.79;100.00;101101.16;4927487;29;20123;-63
2022/12/13 07:42:03;;;;;;;4.65;4.30;;;;;;;-6.75;100.00;101101.75;4925802;29;20379;-62
2022/12/13 07:44:28;;;;;;;4.88;4.47;;;;;;;-6.72;100.00;101093.53;4931632;29;20020;-62
2022/12/13 07:46:54;;;;;;;5.03;4.63;;;;;;;-6.73;100.00;101103.34;4929510;29;20028;-62
2022/12/13 07:49:20;;;;;;;5.00;4.50;;;;;;;-6.70;100.00;101097.78;4929306;29;20039;-62
2022/12/13 07:51:45;;;;;;;5.07;4.55;;;;;;;-6.66;100.00;101104.59;4930012;29;20515;-62
2022/12/13 07:54:10;;;;;;;5.30;4.90;;;;;;;-6.59;100.00;101116.56;4930509;29;20067;-62
2022/12/13 07:56:35;;;;;;;5.05;4.65;;;;;;;-6.51;100.00;101109.78;4930966;29;20035;-62
2022/12/13 07:59:01;;;;;;;5.45;5.00;;;;;;;-6.42;100.00;101111.75;4924687;29;20024;-63
2022/12/13 08:01:27;;;;;;;5.32;4.93;;;;;;;-6.33;100.00;101116.44;4926730;29;20086;-62
2022/12/13 08:03:53;;;;;;;5.50;5.00;;;;;;;-6.23;100.00;101116.56;4927260;29;20061;-62
2022/12/13 08:06:18;;;;;;;5.55;5.05;;;;;;;-6.15;100.00;101116.84;4928726;29;20043;-62
2022/12/13 08:08:44;;;;;;;5.65;5.15;;;;;;;-6.09;100.00;101114.53;4930079;29;20032;-62
2022/12/13 08:11:12;;;;;;;5.40;5.00;;;;;;;-5.97;100.00;101112.78;4929037;29;20024;-62
2022/12/13 08:13:38;;;;;;;5.72;5.22;;;;;;;-5.68;100.00;101115.81;4927948;29;20031;-62
2022/12/13 08:16:06;;;;;;;5.40;4.90;;;;;;;-5.41;100.00;101111.97;4930041;29;20115;-61
2022/12/13 08:18:32;;;;;;;5.20;4.80;;;;;;;-5.28;100.00;101105.50;4931078;29;20030;-62
2022/12/13 08:21:03;;;;;;;5.30;4.80;;;;;;;-5.26;100.00;101111.59;4927804;29;20040;-62
2022/12/13 08:23:31;;;;;;;5.40;4.90;;;;;;;-5.28;100.00;101120.72;4926473;29;20036;-62
2022/12/13 08:25:56;;;;;;;5.68;5.18;;;;;;;-5.20;100.00;101114.75;4927418;29;20031;-62
2022/12/13 08:28:22;;;;;;;5.60;5.10;;;;;;;-5.14;100.00;101117.78;4927481;29;20026;-62
2022/12/13 08:30:48;;;;;;;5.70;5.20;;;;;;;-5.03;100.00;101122.28;4929195;29;20027;-62
2022/12/13 08:33:14;;;;;;;5.70;5.20;;;;;;;-4.79;100.00;101119.44;4927014;29;20082;-63
2022/12/13 08:35:39;;;;;;;5.32;4.88;;;;;;;-4.60;100.00;101118.81;4929964;29;20024;-64
2022/12/13 08:38:05;;;;;;;5.10;4.70;;;;;;;-4.44;100.00;101113.88;4930983;29;20478;-63
2022/12/13 08:40:30;;;;;;;5.60;5.10;;;;;;;-4.38;100.00;101118.72;4923428;29;20024;-63
2022/12/13 08:42:55;;;;;;;5.50;5.00;;;;;;;-4.36;100.00;101119.41;4926752;29;20040;-63
2022/12/13 08:45:23;;;;;;;5.30;4.88;;;;;;;-4.27;100.00;101115.97;4925110;29;20051;-62
2022/12/13 08:47:48;;;;;;;5.30;4.90;;;;;;;-4.21;100.00;101115.50;4930180;29;20450;-63
2022/12/13 08:50:14;;;;;;;5.10;4.70;;;;;;;-4.13;100.00;101113.97;4927689;29;20114;-62
2022/12/13 08:52:39;;;;;;;5.18;4.78;;;;;;;-4.04;100.00;101126.63;4930741;29;20032;-62
2022/12/13 08:55:05;;;;;;;5.38;4.88;;;;;;;-3.90;100.00;101123.63;4933959;29;20035;-63
2022/12/13 08:57:30;;;;;;;5.00;4.60;;;;;;;-3.75;100.00;101130.38;4934244;29;20032;-62
2022/12/13 08:59:55;;;;;;;4.70;4.40;;;;;;;-3.64;100.00;101139.34;4931373;29;20035;-63
2022/12/13 09:02:21;;;;;;;4.78;4.38;;;;;;;-3.34;100.00;101131.31;4920217;29;20091;-63
2022/12/13 09:04:46;;;;;;;5.10;4.70;;;;;;;-3.17;100.00;101129.81;4931959;29;20124;-62
2022/12/13 09:07:11;;;;;;;4.95;4.55;;;;;;;-2.91;100.00;101138.25;4931278;29;20051;-62
2022/12/13 09:09:37;;;;;;;5.15;4.75;;;;;;;-2.65;99.40;101128.69;4934031;29;20012;-62
2022/12/13 09:12:02;;;;;;;4.43;4.13;;;;;;;-2.61;98.06;101127.44;4932886;29;20119;-63
2022/12/13 09:14:28;;;;;;;4.82;4.43;;;;;;;-2.57;97.29;101121.78;4932816;29;20379;-63
2022/12/13 09:16:53;;;;;;;4.65;4.25;;;;;;;-2.58;97.25;101122.78;4933240;29;20019;-62
2022/12/13 09:19:19;;;;;;;4.70;4.30;;;;;;;-2.44;97.42;101115.13;4932186;29;20506;-63
2022/12/13 09:21:44;;;;;;;4.78;4.38;;;;;;;-2.12;96.37;101119.44;4930777;29;20087;-63
2022/12/13 09:24:09;;;;;;;4.47;4.18;;;;;;;-1.89;95.33;101125.34;4931238;29;20078;-63
2022/12/13 09:26:34;;;;;;;4.68;4.28;;;;;;;-1.79;94.43;101120.81;4933199;29;20435;-63
2022/12/13 09:29:00;;;;;;;4.40;4.10;;;;;;;-1.93;93.29;101127.47;4933833;29;20052;-63
2022/12/13 09:31:25;;;;;;;4.28;3.97;;;;;;;-1.99;94.50;101124.50;4929538;29;20031;-63
2022/12/13 09:33:50;;;;;;;4.80;4.40;;;;;;;-1.98;94.82;101128.91;4931638;29;20861;-63
2022/12/13 09:36:19;;;;;;;4.47;4.10;;;;;;;-1.91;94.70;101135.44;4930710;29;20038;-62
2022/12/13 09:38:45;;;;;;;4.40;4.10;;;;;;;-1.79;93.89;101133.41;4932042;29;20028;-62
2022/12/13 09:41:29;;;;;;;4.63;4.32;;;;;;;-1.68;93.35;101134.09;4929617;29;20032;-63
2022/12/13 09:44:00;;;;;;;4.60;4.30;;;;;;;-1.62;93.63;101133.53;4932428;29;20036;-63
2022/12/13 09:46:36;;;;;;;4.65;4.32;;;;;;;-1.51;92.90;101132.53;4930427;29;20023;-63
2022/12/13 09:49:06;;;;;;;4.90;4.50;;;;;;;-1.27;93.01;101136.56;4932726;29;20056;-63
2022/12/13 09:51:32;;;;;;;4.47;4.18;;;;;;;-0.94;92.25;101129.78;4930192;29;20715;-63
2022/12/13 09:53:59;;;;;;;4.50;4.10;;;;;;;-0.63;91.36;101117.66;4933810;29;20060;-63
2022/12/13 09:56:24;;;;;;;4.38;4.07;;;;;;;-0.39;89.11;101110.84;4931228;29;20197;-63
2022/12/13 09:58:55;;;;;;;4.70;4.35;;;;;;;0.03;88.18;101104.81;4928600;29;20547;-63
2022/12/13 10:01:21;;;;;;;4.55;4.25;;;;;;;0.88;86.93;101092.38;4931806;29;20392;-63
2022/12/13 10:03:49;;;;;;;4.18;3.88;;;;;;;1.22;81.77;101089.66;4930783;29;20075;-62
2022/12/13 10:06:22;;;;;;;;;;;;;;;1.94;81.56;101087.25;4932121;29;20051;-62
2022/12/13 10:08:49;;;;;;;3.88;3.58;;;;;;;3.15;76.79;101087.19;4933092;29;20310;-63
2022/12/13 10:11:16;;;;;;;3.70;3.50;;;;;;;3.67;71.61;101071.13;4931948;29;20074;-63
2022/12/13 10:13:53;;;;;;;3.80;3.50;;;;;;;3.39;68.02;101082.47;4914932;29;20399;-63
2022/12/13 10:16:32;;;;;;;3.53;3.33;;;;;;;3.16;70.48;101086.16;4927690;29;20070;-63
2022/12/13 10:18:58;;;;;;;3.72;3.42;;;;;;;2.70;71.06;101076.00;4914510;29;20387;-63
2022/12/13 10:21:41;;;;;;;3.78;3.53;;;;;;;3.57;71.60;101071.34;4924849;29;20027;-64
2022/12/13 10:24:15;;;;;;;3.55;3.35;;;;;;;3.96;68.98;101073.13;4930382;29;20044;-63
2022/12/13 10:26:41;;;;;;;3.50;3.20;;;;;;;3.21;67.81;101081.06;4926826;29;20491;-60
2022/12/13 10:29:07;;;;;;;3.33;3.13;;;;;;;2.39;71.47;101075.88;4930192;29;20027;-61
2022/12/13 10:31:41;;;;;;;3.80;3.50;;;;;;;2.15;74.74;101059.66;4926567;29;20038;-62
2022/12/13 10:34:26;;;;;;;3.53;3.33;;;;;;;1.81;74.27;101064.22;4930428;29;20435;-61
2022/12/13 10:36:51;;;;;;;4.00;3.70;;;;;;;2.05;74.53;101065.25;4921820;29;20626;-61
2022/12/13 10:39:39;;;;;;;3.50;3.20;;;;;;;2.44;73.34;101062.66;4932693;29;20110;-60
2022/12/13 10:42:11;;;;;;;3.80;3.50;;;;;;;2.80;71.39;101060.38;4913316;29;20032;-61
2022/12/13 10:44:36;;;;;;;3.50;3.30;;;;;;;3.23;69.52;101049.13;4921267;29;20386;-61
2022/12/13 10:47:14;;;;;;;3.60;3.40;;;;;;;3.52;67.65;101046.59;4928641;29;20032;-60
2022/12/13 10:49:48;;;;;;;3.88;3.45;;;;;;;3.90;66.39;101052.94;4929650;29;20039;-61
2022/12/13 10:52:38;;;;;;;3.40;3.20;;;;;;;4.34;66.37;101037.75;4930392;29;20039;-61
2022/12/13 10:55:16;;;;;;;3.33;3.10;;;;;;;5.93;62.99;101034.31;4927522;29;20038;-60
2022/12/13 10:57:51;;;;;;;3.50;3.30;;;;;;;6.76;60.68;101025.28;4930328;29;20391;-61
2022/12/13 11:00:45;;;;;;;3.17;2.97;;;;;;;7.22;58.84;101016.47;4929630;29;20118;-61
2022/12/13 11:03:27;;;;;;;3.20;3.00;;;;;;;6.72;55.41;101034.91;4931869;29;20040;-61
2022/12/13 11:06:05;;;;;;;3.47;3.20;;;;;;;6.28;57.29;101023.50;4930642;29;20031;-61
2022/12/13 11:08:30;;;;;;;3.03;2.83;;;;;;;5.76;58.98;101014.63;4927613;29;20028;-61
2022/12/13 11:11:01;;;;;;;3.08;2.88;;;;;;;5.07;59.53;101003.41;4926022;29;20055;-62
2022/12/13 11:13:50;;;;;;;3.20;3.00;;;;;;;4.21;62.63;101007.63;4931909;29;20024;-61
2022/12/13 11:16:24;;;;;;;3.60;3.40;;;;;;;3.62;64.50;101011.06;4920213;29;20432;-61
2022/12/13 11:18:54;;;;;;;3.35;3.15;;;;;;;3.38;64.98;101012.91;4928917;29;20061;-60
2022/12/13 11:21:26;;;;;;;3.42;3.13;;;;;;;3.47;65.73;101011.00;4929938;29;20059;-61
2022/12/13 11:23:54;;;;;;;3.20;3.00;;;;;;;3.55;63.57;101005.50;4930923;29;20051;-61
2022/12/13 11:26:22;;;;;;;3.42;3.22;;;;;;;3.06;65.63;101013.97;4929981;29;20037;-61
2022/12/13 11:29:10;;;;;;;3.15;2.95;;;;;;;2.28;67.33;101006.63;4930669;29;20040;-61
2022/12/13 11:31:53;;;;;;;3.53;3.33;;;;;;;2.08;70.66;101008.03;4930861;29;20035;-61